sensor_id;sensor_type;location;lat;lon;timestamp;temperature;humidity
8591;DHT22;4333;48.322;14.340;2023-02-02T00:01:24;4.30;99.90
8591;DHT22;4333;48.322;14.340;2023-02-02T00:03:55;4.30;99.90
8591;DHT22;4333;48.322;14.340;2023-02-02T00:06:25;4.30;99.90
8591;DHT22;4333;48.322;14.340;2023-02-02T00:08:52;4.20;99.90
8591;DHT22;4333;48.322;14.340;2023-02-02T00:11:23;4.20;99.90
8591;DHT22;4333;48.322;14.340;2023-02-02T00:13:49;4.20;99.90
8591;DHT22;4333;48.322;14.340;2023-02-02T00:19:04;4.20;99.90
8591;DHT22;4333;48.322;14.340;2023-02-02T00:21:33;4.20;99.90
8591;DHT22;4333;48.322;14.340;2023-02-02T00:24:04;4.20;99.90
8591;DHT22;4333;48.322;14.340;2023-02-02T00:26:30;4.20;99.90
8591;DHT22;4333;48.322;14.340;2023-02-02T00:28:56;4.20;99.90
8591;DHT22;4333;48.322;14.340;2023-02-02T00:31:22;4.30;99.90
8591;DHT22;4333;48.322;14.340;2023-02-02T00:33:52;4.30;99.90
8591;DHT22;4333;48.322;14.340;2023-02-02T00:36:21;4.30;99.90
8591;DHT22;4333;48.322;14.340;2023-02-02T00:38:48;4.40;99.90
8591;DHT22;4333;48.322;14.340;2023-02-02T00:41:16;4.30;99.90
8591;DHT22;4333;48.322;14.340;2023-02-02T00:43:42;4.30;99.90
8591;DHT22;4333;48.322;14.340;2023-02-02T00:46:17;4.20;99.90
8591;DHT22;4333;48.322;14.340;2023-02-02T00:48:45;4.20;99.90
8591;DHT22;4333;48.322;14.340;2023-02-02T00:51:11;4.20;99.90
8591;DHT22;4333;48.322;14.340;2023-02-02T00:53:41;4.20;99.90
8591;DHT22;4333;48.322;14.340;2023-02-02T00:56:07;4.10;99.90
8591;DHT22;4333;48.322;14.340;2023-02-02T00:58:35;4.10;99.90
8591;DHT22;4333;48.322;14.340;2023-02-02T01:01:03;4.20;99.90
8591;DHT22;4333;48.322;14.340;2023-02-02T01:03:29;4.10;99.90
8591;DHT22;4333;48.322;14.340;2023-02-02T01:05:57;4.20;99.90
8591;DHT22;4333;48.322;14.340;2023-02-02T01:08:25;4.20;99.90
8591;DHT22;4333;48.322;14.340;2023-02-02T01:10:50;4.20;99.90
8591;DHT22;4333;48.322;14.340;2023-02-02T01:13:16;4.20;99.90
8591;DHT22;4333;48.322;14.340;2023-02-02T01:15:42;4.20;99.90
8591;DHT22;4333;48.322;14.340;2023-02-02T01:18:07;4.10;99.90
8591;DHT22;4333;48.322;14.340;2023-02-02T01:20:33;4.10;99.90
8591;DHT22;4333;48.322;14.340;2023-02-02T01:22:59;4.10;99.90
8591;DHT22;4333;48.322;14.340;2023-02-02T01:25:24;4.20;99.90
8591;DHT22;4333;48.322;14.340;2023-02-02T01:27:51;4.20;99.90
8591;DHT22;4333;48.322;14.340;2023-02-02T01:30:17;4.20;99.90
8591;DHT22;4333;48.322;14.340;2023-02-02T01:32:43;4.20;99.90
8591;DHT22;4333;48.322;14.340;2023-02-02T01:35:08;4.20;99.90
8591;DHT22;4333;48.322;14.340;2023-02-02T01:37:35;4.20;99.90
8591;DHT22;4333;48.322;14.340;2023-02-02T01:40:01;4.30;99.90
8591;DHT22;4333;48.322;14.340;2023-02-02T01:42:26;4.30;99.90
8591;DHT22;4333;48.322;14.340;2023-02-02T01:45:24;4.30;99.90
8591;DHT22;4333;48.322;14.340;2023-02-02T01:47:57;4.40;99.90
8591;DHT22;4333;48.322;14.340;2023-02-02T01:50:30;4.40;99.90
8591;DHT22;4333;48.322;14.340;2023-02-02T01:52:58;4.40;99.90
8591;DHT22;4333;48.322;14.340;2023-02-02T01:55:28;4.40;99.90
8591;DHT22;4333;48.322;14.340;2023-02-02T01:58:18;4.40;99.90
8591;DHT22;4333;48.322;14.340;2023-02-02T02:00:46;4.40;99.90
8591;DHT22;4333;48.322;14.340;2023-02-02T02:03:20;4.50;99.90
8591;DHT22;4333;48.322;14.340;2023-02-02T02:10:55;4.60;99.90
8591;DHT22;4333;48.322;14.340;2023-02-02T02:13:23;4.50;99.90
8591;DHT22;4333;48.322;14.340;2023-02-02T02:19:25;4.10;99.90
8591;DHT22;4333;48.322;14.340;2023-02-02T02:22:12;3.90;99.90
8591;DHT22;4333;48.322;14.340;2023-02-02T02:33:08;3.20;99.90
8591;DHT22;4333;48.322;14.340;2023-02-02T02:36:00;3.10;99.90
8591;DHT22;4333;48.322;14.340;2023-02-02T02:41:19;2.90;99.90
8591;DHT22;4333;48.322;14.340;2023-02-02T02:44:02;2.90;99.90
8591;DHT22;4333;48.322;14.340;2023-02-02T02:46:31;3.00;99.90
8591;DHT22;4333;48.322;14.340;2023-02-02T02:49:00;2.90;99.90
8591;DHT22;4333;48.322;14.340;2023-02-02T02:54:20;2.90;99.90
8591;DHT22;4333;48.322;14.340;2023-02-02T03:05:53;3.00;99.90
8591;DHT22;4333;48.322;14.340;2023-02-02T03:11:25;3.00;99.90
8591;DHT22;4333;48.322;14.340;2023-02-02T03:13:56;3.00;99.90
8591;DHT22;4333;48.322;14.340;2023-02-02T03:16:22;3.00;99.90
8591;DHT22;4333;48.322;14.340;2023-02-02T03:18:47;3.00;99.90
8591;DHT22;4333;48.322;14.340;2023-02-02T03:21:16;3.00;99.90
8591;DHT22;4333;48.322;14.340;2023-02-02T03:23:43;3.00;99.90
8591;DHT22;4333;48.322;14.340;2023-02-02T03:26:11;3.00;99.90
8591;DHT22;4333;48.322;14.340;2023-02-02T03:28:37;3.00;99.90
8591;DHT22;4333;48.322;14.340;2023-02-02T03:31:03;2.90;99.90
8591;DHT22;4333;48.322;14.340;2023-02-02T03:33:30;2.90;99.90
8591;DHT22;4333;48.322;14.340;2023-02-02T03:35:57;2.90;99.90
8591;DHT22;4333;48.322;14.340;2023-02-02T03:38:22;2.90;99.90
8591;DHT22;4333;48.322;14.340;2023-02-02T03:40:51;2.90;99.90
8591;DHT22;4333;48.322;14.340;2023-02-02T03:43:25;2.80;99.90
8591;DHT22;4333;48.322;14.340;2023-02-02T03:46:02;2.80;99.90
8591;DHT22;4333;48.322;14.340;2023-02-02T03:48:34;2.80;99.90
8591;DHT22;4333;48.322;14.340;2023-02-02T03:51:05;2.70;99.90
8591;DHT22;4333;48.322;14.340;2023-02-02T03:53:31;2.40;99.90
8591;DHT22;4333;48.322;14.340;2023-02-02T03:55:59;2.10;99.90
8591;DHT22;4333;48.322;14.340;2023-02-02T03:58:24;1.90;99.90
8591;DHT22;4333;48.322;14.340;2023-02-02T04:00:50;1.90;99.90
8591;DHT22;4333;48.322;14.340;2023-02-02T04:03:23;1.70;99.90
8591;DHT22;4333;48.322;14.340;2023-02-02T04:05:49;1.60;99.90
8591;DHT22;4333;48.322;14.340;2023-02-02T04:08:15;1.60;99.90
8591;DHT22;4333;48.322;14.340;2023-02-02T04:10:43;1.30;99.90
8591;DHT22;4333;48.322;14.340;2023-02-02T04:13:08;1.20;99.90
8591;DHT22;4333;48.322;14.340;2023-02-02T04:15:37;1.10;99.90
8591;DHT22;4333;48.322;14.340;2023-02-02T04:18:07;1.00;99.90
8591;DHT22;4333;48.322;14.340;2023-02-02T04:20:33;1.00;99.90
8591;DHT22;4333;48.322;14.340;2023-02-02T04:23:03;0.90;99.90
8591;DHT22;4333;48.322;14.340;2023-02-02T04:25:29;0.90;99.90
8591;DHT22;4333;48.322;14.340;2023-02-02T04:27:57;0.90;99.90
8591;DHT22;4333;48.322;14.340;2023-02-02T04:30:24;0.90;99.90
8591;DHT22;4333;48.322;14.340;2023-02-02T04:32:56;0.90;99.90
8591;DHT22;4333;48.322;14.340;2023-02-02T04:35:26;0.90;99.90
8591;DHT22;4333;48.322;14.340;2023-02-02T04:37:54;0.90;99.90
8591;DHT22;4333;48.322;14.340;2023-02-02T04:40:22;1.00;99.90
8591;DHT22;4333;48.322;14.340;2023-02-02T04:42:48;1.00;99.90
8591;DHT22;4333;48.322;14.340;2023-02-02T04:45:16;1.00;99.90
8591;DHT22;4333;48.322;14.340;2023-02-02T04:47:44;1.00;99.90
8591;DHT22;4333;48.322;14.340;2023-02-02T04:50:10;1.00;99.90
8591;DHT22;4333;48.322;14.340;2023-02-02T04:52:39;1.00;99.90
8591;DHT22;4333;48.322;14.340;2023-02-02T04:55:05;1.00;99.90
8591;DHT22;4333;48.322;14.340;2023-02-02T04:57:33;1.00;99.90
8591;DHT22;4333;48.322;14.340;2023-02-02T04:59:58;1.00;99.90
8591;DHT22;4333;48.322;14.340;2023-02-02T05:02:26;1.00;99.90
8591;DHT22;4333;48.322;14.340;2023-02-02T05:04:52;1.00;99.90
8591;DHT22;4333;48.322;14.340;2023-02-02T05:07:18;1.00;99.90
8591;DHT22;4333;48.322;14.340;2023-02-02T05:09:43;1.00;99.90
8591;DHT22;4333;48.322;14.340;2023-02-02T05:12:11;1.00;99.90
8591;DHT22;4333;48.322;14.340;2023-02-02T05:14:37;0.90;99.90
8591;DHT22;4333;48.322;14.340;2023-02-02T05:17:03;0.90;99.90
8591;DHT22;4333;48.322;14.340;2023-02-02T05:19:31;0.80;99.90
8591;DHT22;4333;48.322;14.340;2023-02-02T05:21:57;0.80;99.90
8591;DHT22;4333;48.322;14.340;2023-02-02T05:24:27;0.80;99.90
8591;DHT22;4333;48.322;14.340;2023-02-02T05:26:57;0.80;99.90
8591;DHT22;4333;48.322;14.340;2023-02-02T05:29:26;0.90;99.90
8591;DHT22;4333;48.322;14.340;2023-02-02T05:31:54;0.90;99.90
8591;DHT22;4333;48.322;14.340;2023-02-02T05:34:20;1.00;99.90
8591;DHT22;4333;48.322;14.340;2023-02-02T05:36:47;1.00;99.90
8591;DHT22;4333;48.322;14.340;2023-02-02T05:39:12;1.00;99.90
8591;DHT22;4333;48.322;14.340;2023-02-02T05:41:41;1.00;99.90
8591;DHT22;4333;48.322;14.340;2023-02-02T05:44:09;1.10;99.90
8591;DHT22;4333;48.322;14.340;2023-02-02T05:46:36;1.10;99.90
8591;DHT22;4333;48.322;14.340;2023-02-02T05:49:01;1.20;99.90
8591;DHT22;4333;48.322;14.340;2023-02-02T05:51:50;1.30;99.90
8591;DHT22;4333;48.322;14.340;2023-02-02T05:54:19;1.30;99.90
8591;DHT22;4333;48.322;14.340;2023-02-02T05:56:50;1.30;99.90
8591;DHT22;4333;48.322;14.340;2023-02-02T05:59:21;1.40;99.90
8591;DHT22;4333;48.322;14.340;2023-02-02T06:01:48;1.40;99.90
8591;DHT22;4333;48.322;14.340;2023-02-02T06:04:14;1.40;99.90
8591;DHT22;4333;48.322;14.340;2023-02-02T06:06:40;1.30;99.90
8591;DHT22;4333;48.322;14.340;2023-02-02T06:09:06;1.30;99.90
8591;DHT22;4333;48.322;14.340;2023-02-02T06:11:37;1.30;99.90
8591;DHT22;4333;48.322;14.340;2023-02-02T06:14:04;1.30;99.90
8591;DHT22;4333;48.322;14.340;2023-02-02T06:16:30;1.40;99.90
8591;DHT22;4333;48.322;14.340;2023-02-02T06:18:55;1.40;99.90
8591;DHT22;4333;48.322;14.340;2023-02-02T06:21:23;1.50;99.90
8591;DHT22;4333;48.322;14.340;2023-02-02T06:23:50;1.50;99.90
8591;DHT22;4333;48.322;14.340;2023-02-02T06:26:16;1.60;99.90
8591;DHT22;4333;48.322;14.340;2023-02-02T06:28:47;1.60;99.90
8591;DHT22;4333;48.322;14.340;2023-02-02T06:31:13;1.60;99.90
8591;DHT22;4333;48.322;14.340;2023-02-02T06:33:39;1.60;99.90
8591;DHT22;4333;48.322;14.340;2023-02-02T06:36:08;1.60;99.90
8591;DHT22;4333;48.322;14.340;2023-02-02T06:38:33;1.60;99.90
8591;DHT22;4333;48.322;14.340;2023-02-02T06:41:02;1.60;99.90
8591;DHT22;4333;48.322;14.340;2023-02-02T06:43:28;1.60;99.90
8591;DHT22;4333;48.322;14.340;2023-02-02T06:45:58;1.60;99.90
8591;DHT22;4333;48.322;14.340;2023-02-02T06:48:27;1.60;99.90
8591;DHT22;4333;48.322;14.340;2023-02-02T06:50:58;1.50;99.90
8591;DHT22;4333;48.322;14.340;2023-02-02T06:53:29;1.50;99.90
8591;DHT22;4333;48.322;14.340;2023-02-02T06:56:00;1.50;99.90
8591;DHT22;4333;48.322;14.340;2023-02-02T06:58:29;1.50;99.90
8591;DHT22;4333;48.322;14.340;2023-02-02T07:00:59;1.50;99.90
8591;DHT22;4333;48.322;14.340;2023-02-02T07:03:27;1.40;99.90
8591;DHT22;4333;48.322;14.340;2023-02-02T07:05:55;1.40;99.90
8591;DHT22;4333;48.322;14.340;2023-02-02T07:08:23;1.40;99.90
8591;DHT22;4333;48.322;14.340;2023-02-02T07:10:51;1.40;99.90
8591;DHT22;4333;48.322;14.340;2023-02-02T07:13:16;1.40;99.90
8591;DHT22;4333;48.322;14.340;2023-02-02T07:15:44;1.40;99.90
8591;DHT22;4333;48.322;14.340;2023-02-02T07:18:13;1.40;99.90
8591;DHT22;4333;48.322;14.340;2023-02-02T07:20:40;1.40;99.90
8591;DHT22;4333;48.322;14.340;2023-02-02T07:23:09;1.40;99.90
8591;DHT22;4333;48.322;14.340;2023-02-02T07:25:39;1.30;99.90
8591;DHT22;4333;48.322;14.340;2023-02-02T07:28:05;1.40;99.90
8591;DHT22;4333;48.322;14.340;2023-02-02T07:30:31;1.30;99.90
8591;DHT22;4333;48.322;14.340;2023-02-02T07:32:57;1.40;99.90
8591;DHT22;4333;48.322;14.340;2023-02-02T07:35:25;1.40;99.90
8591;DHT22;4333;48.322;14.340;2023-02-02T07:37:57;1.40;99.90
8591;DHT22;4333;48.322;14.340;2023-02-02T07:40:25;1.40;99.90
8591;DHT22;4333;48.322;14.340;2023-02-02T07:42:58;1.40;99.90
8591;DHT22;4333;48.322;14.340;2023-02-02T07:45:29;1.40;99.90
8591;DHT22;4333;48.322;14.340;2023-02-02T07:47:58;1.50;99.90
8591;DHT22;4333;48.322;14.340;2023-02-02T07:50:25;1.50;99.90
8591;DHT22;4333;48.322;14.340;2023-02-02T07:52:58;1.60;99.90
8591;DHT22;4333;48.322;14.340;2023-02-02T07:55:24;1.60;99.90
8591;DHT22;4333;48.322;14.340;2023-02-02T07:57:52;1.60;99.90
8591;DHT22;4333;48.322;14.340;2023-02-02T08:00:24;1.70;99.90
8591;DHT22;4333;48.322;14.340;2023-02-02T08:02:53;1.70;99.90
8591;DHT22;4333;48.322;14.340;2023-02-02T08:05:23;1.80;99.90
8591;DHT22;4333;48.322;14.340;2023-02-02T08:07:54;1.80;99.90
8591;DHT22;4333;48.322;14.340;2023-02-02T08:10:19;1.80;99.90
8591;DHT22;4333;48.322;14.340;2023-02-02T08:12:45;1.90;99.90
8591;DHT22;4333;48.322;14.340;2023-02-02T08:15:18;1.90;99.90
8591;DHT22;4333;48.322;14.340;2023-02-02T08:17:44;1.90;99.90
8591;DHT22;4333;48.322;14.340;2023-02-02T08:20:14;1.90;99.90
8591;DHT22;4333;48.322;14.340;2023-02-02T08:22:42;2.00;99.90
8591;DHT22;4333;48.322;14.340;2023-02-02T08:25:10;2.00;99.90
8591;DHT22;4333;48.322;14.340;2023-02-02T08:27:38;2.10;99.90
8591;DHT22;4333;48.322;14.340;2023-02-02T08:30:07;2.10;99.90
8591;DHT22;4333;48.322;14.340;2023-02-02T08:32:35;2.10;99.90
8591;DHT22;4333;48.322;14.340;2023-02-02T08:35:01;2.10;99.90
8591;DHT22;4333;48.322;14.340;2023-02-02T08:37:32;2.20;99.90
8591;DHT22;4333;48.322;14.340;2023-02-02T08:39:59;2.20;99.90
8591;DHT22;4333;48.322;14.340;2023-02-02T08:42:28;2.20;99.90
8591;DHT22;4333;48.322;14.340;2023-02-02T08:44:56;2.20;99.90
8591;DHT22;4333;48.322;14.340;2023-02-02T08:47:30;2.30;99.90
8591;DHT22;4333;48.322;14.340;2023-02-02T08:49:56;2.30;99.90
8591;DHT22;4333;48.322;14.340;2023-02-02T08:52:24;2.30;99.90
8591;DHT22;4333;48.322;14.340;2023-02-02T08:54:52;2.40;99.90
8591;DHT22;4333;48.322;14.340;2023-02-02T08:57:20;2.40;99.90
8591;DHT22;4333;48.322;14.340;2023-02-02T08:59:46;2.40;99.90
8591;DHT22;4333;48.322;14.340;2023-02-02T09:02:14;2.50;99.90
8591;DHT22;4333;48.322;14.340;2023-02-02T09:04:41;2.50;99.90
8591;DHT22;4333;48.322;14.340;2023-02-02T09:07:12;2.50;99.90
8591;DHT22;4333;48.322;14.340;2023-02-02T09:09:40;2.50;99.90
8591;DHT22;4333;48.322;14.340;2023-02-02T09:12:08;2.50;99.90
8591;DHT22;4333;48.322;14.340;2023-02-02T09:14:33;2.50;99.90
8591;DHT22;4333;48.322;14.340;2023-02-02T09:16:59;2.50;99.90
8591;DHT22;4333;48.322;14.340;2023-02-02T09:19:27;2.50;99.90
8591;DHT22;4333;48.322;14.340;2023-02-02T09:21:53;2.60;99.90
8591;DHT22;4333;48.322;14.340;2023-02-02T09:24:18;2.60;99.90
8591;DHT22;4333;48.322;14.340;2023-02-02T09:26:48;2.50;99.90
8591;DHT22;4333;48.322;14.340;2023-02-02T09:29:19;2.60;99.90
8591;DHT22;4333;48.322;14.340;2023-02-02T09:31:47;2.60;99.90
8591;DHT22;4333;48.322;14.340;2023-02-02T09:34:16;2.60;99.90
8591;DHT22;4333;48.322;14.340;2023-02-02T09:36:42;2.60;99.90
8591;DHT22;4333;48.322;14.340;2023-02-02T09:39:11;2.60;99.90
8591;DHT22;4333;48.322;14.340;2023-02-02T09:41:51;2.60;99.90
8591;DHT22;4333;48.322;14.340;2023-02-02T09:44:33;2.60;99.90
8591;DHT22;4333;48.322;14.340;2023-02-02T09:47:15;2.60;99.90
8591;DHT22;4333;48.322;14.340;2023-02-02T09:50:04;2.70;99.90
8591;DHT22;4333;48.322;14.340;2023-02-02T09:52:50;2.70;99.90
8591;DHT22;4333;48.322;14.340;2023-02-02T09:57:54;2.80;99.90
8591;DHT22;4333;48.322;14.340;2023-02-02T10:00:28;2.80;99.90
8591;DHT22;4333;48.322;14.340;2023-02-02T10:03:00;2.90;99.90
8591;DHT22;4333;48.322;14.340;2023-02-02T10:08:40;2.90;99.90
8591;DHT22;4333;48.322;14.340;2023-02-02T10:11:31;3.00;99.90
8591;DHT22;4333;48.322;14.340;2023-02-02T10:14:08;3.00;99.90
8591;DHT22;4333;48.322;14.340;2023-02-02T10:16:37;3.00;99.90
8591;DHT22;4333;48.322;14.340;2023-02-02T10:19:11;3.10;99.90
8591;DHT22;4333;48.322;14.340;2023-02-02T10:24:18;3.10;99.90
8591;DHT22;4333;48.322;14.340;2023-02-02T10:26:47;3.10;99.90
8591;DHT22;4333;48.322;14.340;2023-02-02T10:32:13;3.00;99.90
8591;DHT22;4333;48.322;14.340;2023-02-02T10:45:37;3.10;99.90
8591;DHT22;4333;48.322;14.340;2023-02-02T10:48:13;3.10;99.90
8591;DHT22;4333;48.322;14.340;2023-02-02T10:50:44;3.20;99.90
8591;DHT22;4333;48.322;14.340;2023-02-02T10:53:13;3.30;99.90
8591;DHT22;4333;48.322;14.340;2023-02-02T10:56:04;3.30;99.90
8591;DHT22;4333;48.322;14.340;2023-02-02T11:01:29;3.30;99.90
8591;DHT22;4333;48.322;14.340;2023-02-02T11:03:57;3.30;99.90
8591;DHT22;4333;48.322;14.340;2023-02-02T11:06:41;3.40;99.90
8591;DHT22;4333;48.322;14.340;2023-02-02T11:09:27;3.40;99.90
8591;DHT22;4333;48.322;14.340;2023-02-02T11:12:02;3.40;99.90
8591;DHT22;4333;48.322;14.340;2023-02-02T11:14:43;3.30;99.90
8591;DHT22;4333;48.322;14.340;2023-02-02T11:17:19;3.30;99.90
8591;DHT22;4333;48.322;14.340;2023-02-02T11:19:45;3.40;99.90
8591;DHT22;4333;48.322;14.340;2023-02-02T11:22:32;3.30;99.90
8591;DHT22;4333;48.322;14.340;2023-02-02T11:25:04;3.40;99.90
8591;DHT22;4333;48.322;14.340;2023-02-02T11:27:41;3.40;99.90
8591;DHT22;4333;48.322;14.340;2023-02-02T11:32:43;3.30;99.90
8591;DHT22;4333;48.322;14.340;2023-02-02T11:37:58;3.20;99.90
8591;DHT22;4333;48.322;14.340;2023-02-02T11:43:01;3.10;99.90
8591;DHT22;4333;48.322;14.340;2023-02-02T11:45:40;3.10;99.90
8591;DHT22;4333;48.322;14.340;2023-02-02T11:48:18;3.10;99.90
8591;DHT22;4333;48.322;14.340;2023-02-02T11:50:45;3.00;99.90
8591;DHT22;4333;48.322;14.340;2023-02-02T11:55:47;3.00;99.90
8591;DHT22;4333;48.322;14.340;2023-02-02T12:00:49;2.80;99.90
8591;DHT22;4333;48.322;14.340;2023-02-02T12:03:24;2.80;99.90
8591;DHT22;4333;48.322;14.340;2023-02-02T12:05:50;2.70;99.90
8591;DHT22;4333;48.322;14.340;2023-02-02T12:08:16;2.70;99.90
8591;DHT22;4333;48.322;14.340;2023-02-02T12:11:02;2.70;99.90
8591;DHT22;4333;48.322;14.340;2023-02-02T12:21:53;2.70;99.90
8591;DHT22;4333;48.322;14.340;2023-02-02T12:27:09;2.70;99.90
8591;DHT22;4333;48.322;14.340;2023-02-02T12:32:58;2.50;99.90
8591;DHT22;4333;48.322;14.340;2023-02-02T12:41:22;2.40;99.90
8591;DHT22;4333;48.322;14.340;2023-02-02T12:57:28;2.00;99.90
8591;DHT22;4333;48.322;14.340;2023-02-02T13:03:15;1.90;99.90
8591;DHT22;4333;48.322;14.340;2023-02-02T13:08:46;1.80;99.90
8591;DHT22;4333;48.322;14.340;2023-02-02T13:11:23;1.80;99.90
8591;DHT22;4333;48.322;14.340;2023-02-02T13:14:08;1.90;99.90
8591;DHT22;4333;48.322;14.340;2023-02-02T13:16:39;1.90;99.90
8591;DHT22;4333;48.322;14.340;2023-02-02T13:19:19;1.90;99.90
8591;DHT22;4333;48.322;14.340;2023-02-02T13:21:49;2.00;99.90
8591;DHT22;4333;48.322;14.340;2023-02-02T13:24:30;1.90;99.90
8591;DHT22;4333;48.322;14.340;2023-02-02T13:26:58;1.80;99.90
8591;DHT22;4333;48.322;14.340;2023-02-02T13:31:58;1.60;99.90
8591;DHT22;4333;48.322;14.340;2023-02-02T13:40:25;1.60;99.90
8591;DHT22;4333;48.322;14.340;2023-02-02T13:43:29;1.60;99.90
8591;DHT22;4333;48.322;14.340;2023-02-02T13:46:28;1.50;99.90
8591;DHT22;4333;48.322;14.340;2023-02-02T13:51:43;1.40;99.90
8591;DHT22;4333;48.322;14.340;2023-02-02T14:02:54;1.30;99.90
8591;DHT22;4333;48.322;14.340;2023-02-02T14:08:01;1.30;99.90
8591;DHT22;4333;48.322;14.340;2023-02-02T14:10:38;1.30;99.90
8591;DHT22;4333;48.322;14.340;2023-02-02T14:15:58;1.20;99.90
8591;DHT22;4333;48.322;14.340;2023-02-02T14:29:34;1.20;99.90
8591;DHT22;4333;48.322;14.340;2023-02-02T14:48:46;1.10;99.90
8591;DHT22;4333;48.322;14.340;2023-02-02T14:51:16;1.00;99.90
8591;DHT22;4333;48.322;14.340;2023-02-02T14:56:47;1.10;99.90
8591;DHT22;4333;48.322;14.340;2023-02-02T14:59:31;1.00;99.90
8591;DHT22;4333;48.322;14.340;2023-02-02T15:08:25;1.00;99.90
8591;DHT22;4333;48.322;14.340;2023-02-02T15:10:55;1.00;99.90
8591;DHT22;4333;48.322;14.340;2023-02-02T15:13:23;1.00;99.90
8591;DHT22;4333;48.322;14.340;2023-02-02T15:16:00;1.00;99.90
8591;DHT22;4333;48.322;14.340;2023-02-02T15:18:40;1.00;99.90
8591;DHT22;4333;48.322;14.340;2023-02-02T15:21:07;1.00;99.90
8591;DHT22;4333;48.322;14.340;2023-02-02T15:23:41;1.00;99.90
8591;DHT22;4333;48.322;14.340;2023-02-02T15:28:56;1.00;99.90
8591;DHT22;4333;48.322;14.340;2023-02-02T15:34:03;1.00;99.90
8591;DHT22;4333;48.322;14.340;2023-02-02T15:36:36;1.00;99.90
8591;DHT22;4333;48.322;14.340;2023-02-02T15:39:10;1.00;99.90
8591;DHT22;4333;48.322;14.340;2023-02-02T15:41:42;1.00;99.90
8591;DHT22;4333;48.322;14.340;2023-02-02T15:44:19;1.00;99.90
8591;DHT22;4333;48.322;14.340;2023-02-02T15:46:45;1.00;99.90
8591;DHT22;4333;48.322;14.340;2023-02-02T15:49:20;1.00;99.90
8591;DHT22;4333;48.322;14.340;2023-02-02T15:51:54;1.00;99.90
8591;DHT22;4333;48.322;14.340;2023-02-02T15:54:27;1.00;99.90
8591;DHT22;4333;48.322;14.340;2023-02-02T15:56:55;1.00;99.90
8591;DHT22;4333;48.322;14.340;2023-02-02T15:59:27;1.00;99.90
8591;DHT22;4333;48.322;14.340;2023-02-02T16:04:40;1.00;99.90
8591;DHT22;4333;48.322;14.340;2023-02-02T16:07:15;1.00;99.90
8591;DHT22;4333;48.322;14.340;2023-02-02T16:09:48;0.90;99.90
8591;DHT22;4333;48.322;14.340;2023-02-02T16:12:16;1.00;99.90
8591;DHT22;4333;48.322;14.340;2023-02-02T16:14:50;0.90;99.90
8591;DHT22;4333;48.322;14.340;2023-02-02T16:20:09;0.90;99.90
8591;DHT22;4333;48.322;14.340;2023-02-02T16:22:42;0.90;99.90
8591;DHT22;4333;48.322;14.340;2023-02-02T16:25:12;0.90;99.90
8591;DHT22;4333;48.322;14.340;2023-02-02T16:27:44;0.90;99.90
8591;DHT22;4333;48.322;14.340;2023-02-02T16:32:52;0.90;99.90
8591;DHT22;4333;48.322;14.340;2023-02-02T16:35:34;0.90;99.90
8591;DHT22;4333;48.322;14.340;2023-02-02T16:41:38;0.90;99.90
8591;DHT22;4333;48.322;14.340;2023-02-02T16:44:29;0.90;99.90
8591;DHT22;4333;48.322;14.340;2023-02-02T16:47:01;0.90;99.90
8591;DHT22;4333;48.322;14.340;2023-02-02T16:49:32;0.90;99.90
8591;DHT22;4333;48.322;14.340;2023-02-02T16:52:14;0.90;99.90
8591;DHT22;4333;48.322;14.340;2023-02-02T16:54:55;0.90;99.90
8591;DHT22;4333;48.322;14.340;2023-02-02T16:57:32;0.90;99.90
8591;DHT22;4333;48.322;14.340;2023-02-02T17:00:00;1.00;99.90
8591;DHT22;4333;48.322;14.340;2023-02-02T17:07:25;0.90;99.90
8591;DHT22;4333;48.322;14.340;2023-02-02T17:12:52;1.00;99.90
8591;DHT22;4333;48.322;14.340;2023-02-02T17:17:45;1.00;99.90
8591;DHT22;4333;48.322;14.340;2023-02-02T17:20:17;1.00;99.90
8591;DHT22;4333;48.322;14.340;2023-02-02T17:22:48;1.00;99.90
8591;DHT22;4333;48.322;14.340;2023-02-02T17:27:58;1.00;99.90
8591;DHT22;4333;48.322;14.340;2023-02-02T17:30:25;1.00;99.90
8591;DHT22;4333;48.322;14.340;2023-02-02T17:32:53;1.00;99.90
8591;DHT22;4333;48.322;14.340;2023-02-02T17:35:24;1.00;99.90
8591;DHT22;4333;48.322;14.340;2023-02-02T17:37:53;1.10;99.90
8591;DHT22;4333;48.322;14.340;2023-02-02T17:40:20;1.10;99.90
8591;DHT22;4333;48.322;14.340;2023-02-02T17:42:55;1.10;99.90
8591;DHT22;4333;48.322;14.340;2023-02-02T17:45:28;1.10;99.90
8591;DHT22;4333;48.322;14.340;2023-02-02T17:47:53;1.20;99.90
8591;DHT22;4333;48.322;14.340;2023-02-02T17:50:23;1.20;99.90
8591;DHT22;4333;48.322;14.340;2023-02-02T17:52:49;1.20;99.90
8591;DHT22;4333;48.322;14.340;2023-02-02T17:57:50;1.20;99.90
8591;DHT22;4333;48.322;14.340;2023-02-02T18:00:24;1.20;99.90
8591;DHT22;4333;48.322;14.340;2023-02-02T18:03:09;1.20;99.90
8591;DHT22;4333;48.322;14.340;2023-02-02T18:05:41;1.20;99.90
8591;DHT22;4333;48.322;14.340;2023-02-02T18:08:11;1.20;99.90
8591;DHT22;4333;48.322;14.340;2023-02-02T18:10:40;1.20;99.90
8591;DHT22;4333;48.322;14.340;2023-02-02T18:13:32;1.20;99.90
8591;DHT22;4333;48.322;14.340;2023-02-02T18:16:11;1.20;99.90
8591;DHT22;4333;48.322;14.340;2023-02-02T18:18:37;1.30;99.90
8591;DHT22;4333;48.322;14.340;2023-02-02T18:21:10;1.30;99.90
8591;DHT22;4333;48.322;14.340;2023-02-02T18:23:40;1.30;99.90
8591;DHT22;4333;48.322;14.340;2023-02-02T18:26:14;1.30;99.90
8591;DHT22;4333;48.322;14.340;2023-02-02T18:28:42;1.40;99.90
8591;DHT22;4333;48.322;14.340;2023-02-02T18:31:13;1.40;99.90
8591;DHT22;4333;48.322;14.340;2023-02-02T18:33:39;1.40;99.90
8591;DHT22;4333;48.322;14.340;2023-02-02T18:36:17;1.50;99.90
8591;DHT22;4333;48.322;14.340;2023-02-02T18:38:45;1.40;99.90
8591;DHT22;4333;48.322;14.340;2023-02-02T18:41:12;1.50;99.90
8591;DHT22;4333;48.322;14.340;2023-02-02T18:43:38;1.50;99.90
8591;DHT22;4333;48.322;14.340;2023-02-02T18:46:06;1.50;99.90
8591;DHT22;4333;48.322;14.340;2023-02-02T18:48:34;1.50;99.90
8591;DHT22;4333;48.322;14.340;2023-02-02T18:51:09;1.50;99.90
8591;DHT22;4333;48.322;14.340;2023-02-02T18:53:40;1.50;99.90
8591;DHT22;4333;48.322;14.340;2023-02-02T18:56:07;1.50;99.90
8591;DHT22;4333;48.322;14.340;2023-02-02T18:58:34;1.60;99.90
8591;DHT22;4333;48.322;14.340;2023-02-02T19:01:14;1.60;99.90
8591;DHT22;4333;48.322;14.340;2023-02-02T19:03:40;1.60;99.90
8591;DHT22;4333;48.322;14.340;2023-02-02T19:06:08;1.60;99.90
8591;DHT22;4333;48.322;14.340;2023-02-02T19:08:53;1.60;99.90
8591;DHT22;4333;48.322;14.340;2023-02-02T19:11:22;1.60;99.90
8591;DHT22;4333;48.322;14.340;2023-02-02T19:13:51;1.60;99.90
8591;DHT22;4333;48.322;14.340;2023-02-02T19:16:24;1.60;99.90
8591;DHT22;4333;48.322;14.340;2023-02-02T19:19:00;1.60;99.90
8591;DHT22;4333;48.322;14.340;2023-02-02T19:21:29;1.60;99.90
8591;DHT22;4333;48.322;14.340;2023-02-02T19:23:55;1.60;99.90
8591;DHT22;4333;48.322;14.340;2023-02-02T19:26:23;1.60;99.90
8591;DHT22;4333;48.322;14.340;2023-02-02T19:29:02;1.60;99.90
8591;DHT22;4333;48.322;14.340;2023-02-02T19:31:30;1.60;99.90
8591;DHT22;4333;48.322;14.340;2023-02-02T19:33:55;1.60;99.90
8591;DHT22;4333;48.322;14.340;2023-02-02T19:36:25;1.60;99.90
8591;DHT22;4333;48.322;14.340;2023-02-02T19:39:01;1.60;99.90
8591;DHT22;4333;48.322;14.340;2023-02-02T19:41:30;1.70;99.90
8591;DHT22;4333;48.322;14.340;2023-02-02T19:44:04;1.70;99.90
8591;DHT22;4333;48.322;14.340;2023-02-02T19:46:41;1.70;99.90
8591;DHT22;4333;48.322;14.340;2023-02-02T19:49:12;1.70;99.90
8591;DHT22;4333;48.322;14.340;2023-02-02T19:57:05;1.80;99.90
8591;DHT22;4333;48.322;14.340;2023-02-02T19:59:33;1.90;99.90